Terminal Aerodrome Forecast
Issued by NWS

Home | Current Version | Previous Version | Text Only | Print | Product List | Glossary On
Versions: 1 2 3 4 5 6 7 8 9 10 11 12 13 14 15 16 17
000
FTUS43 KDTX 231740
TAFDET
TAF
KDET 231740Z 2318/2418 30007KT P6SM FEW030 SCT150
     FM232200 34007KT P6SM SCT035 BKN150
     FM240300 06007KT 6SM BR BKN015 OVC040
     FM240600 06008KT 3SM -SHRA BR BKN008 OVC018
     FM241200 12007KT 2SM -DZ BR BKN005 OVC012
     FM241600 18012KT P6SM BKN018 BKN025=

USA.gov is the U.S. government's official web portal to all federal, state and local government web resources and services.